Latest Weather Observations for Murrurundi Gap

IDN60801

Issued at 11:35 pm EST Friday 1 August 2014 (issued every 30 minutes, with the page automatically refreshed every 10 minutes)

About weather observations | Map of weather stations | Latest weather observations for NSW | Other Formats
Station Details ID: 061392 Name: MURRURUNDI GAP AWS Lat: -31.74 Lon: 150.79 Height: 729.4 m
Data from the previous 72 hours. | See also: Recent months for locations in New South Wales
Date/Time
EST
Temp
°C
App
Temp
°C
Dew
Point
Rel
Hum
%
Delta-T
°C
Wind Press
QNH
hPa
Press
MSL
hPa
Rain
since 9 am
mm
Dir
 
Spd
km/h
Gust
km/h
Spd
kts
Gust
kts
01/11:30pm 4.9 -1.6 -2.7 58 2.8 NW 22 35 12 19 1019.6 - 0.2
01/11:00pm 4.9 -1.2 -2.4 59 2.7 NW 20 28 11 15 1019.6 1019.4 0.2
01/10:30pm 3.6 -1.8 -1.7 68 2.0 NNW 17 24 9 13 1019.5 - 0.2
01/10:00pm 3.9 -1.1 -1.3 69 2.0 NW 15 20 8 11 1019.5 1019.3 0.2
01/09:30pm 4.6 -2.8 -0.8 68 2.1 NW 28 46 15 25 1019.1 - 0.2
01/09:00pm 5.6 -0.6 -3.5 52 3.3 NW 20 26 11 14 1018.7 1018.4 0.0
01/08:30pm 6.2 -1.2 -3.4 50 3.6 NNW 26 32 14 17 1018.1 - 0.0
01/08:00pm 5.9 -1.1 -3.2 52 3.4 NNW 24 30 13 16 1017.8 1017.5 0.0
01/07:30pm 5.6 -0.1 -3.7 51 3.4 NW 17 22 9 12 1017.6 - 0.0
01/07:00pm 6.1 -0.2 -4.1 48 3.7 NNW 20 26 11 14 1016.9 1016.7 0.0
01/06:30pm 6.9 -0.2 -4.5 44 4.2 NNW 24 30 13 16 1016.3 - 0.0
01/06:00pm 7.7 0.6 -4.7 41 4.5 NNW 24 32 13 17 1015.5 1015.3 0.0
01/05:30pm 8.3 -0.1 -2.6 46 4.2 NW 32 41 17 22 1014.7 - 0.0
01/05:00pm 9.4 1.9 -1.3 47 4.3 WNW 28 39 15 21 1014.3 1013.9 0.0
01/04:30pm 10.3 0.1 -3.4 38 5.3 NW 41 61 22 33 1013.1 - 0.0
01/04:21pm 10.7 0.3 -0.4 46 4.7 NW 44 63 24 34 1012.7 - 0.0
01/04:00pm 10.0 -0.4 -0.2 49 4.3 NW 44 59 24 32 1012.3 1012.0 0.0
01/03:30pm 10.0 -0.2 0.9 53 3.9 NW 44 67 24 36 1011.9 - 0.0
01/03:12pm 10.2 0.0 1.1 53 3.9 NW 44 63 24 34 1011.2 - 0.0
01/03:00pm 10.7 0.8 1.8 54 3.9 WNW 43 56 23 30 1011.8 1011.4 0.0
01/02:45pm 11.1 -0.3 2.7 56 3.8 NW 52 70 28 38 1011.2 - 0.0
01/02:30pm 11.4 -0.8 2.4 54 4.0 NW 56 70 30 38 1010.2 - 0.0
01/02:11pm 11.7 -0.7 2.5 53 4.2 NW 57 76 31 41 1010.1 - 0.0
01/02:00pm 12.2 -0.6 2.4 51 4.5 NW 59 76 32 41 1009.7 1009.4 0.0
01/01:30pm 12.8 -0.4 2.4 49 4.7 NW 61 80 33 43 1009.1 - 0.0
01/01:16pm 12.9 0.0 1.9 47 5.0 NW 59 80 32 43 1009.0 - 0.0
01/01:00pm 13.1 -0.4 2.6 49 4.8 NW 63 80 34 43 1009.1 1008.7 0.0
01/12:32pm 13.7 0.6 2.9 48 5.0 NNW 61 80 33 43 1009.3 - 0.0
01/12:30pm 13.3 -0.6 2.8 49 4.8 NNW 65 80 35 43 1009.2 - 0.0
01/12:26pm 13.0 -0.2 2.3 48 4.9 NNW 61 80 33 43 1008.7 - 0.0
01/12:00pm 13.4 2.0 2.6 48 5.0 NNW 52 61 28 33 1010.0 1009.6 0.0
01/11:30am 13.2 2.9 0.6 42 5.5 NW 44 59 24 32 1010.5 - 0.0
01/11:00am 12.4 1.2 -0.5 41 5.5 NW 48 63 26 34 1010.8 1010.5 0.0
01/10:30am 11.9 0.5 -1.9 38 5.7 NW 48 67 26 36 1010.2 - 0.0
01/10:28am 12.1 1.1 -2.1 37 5.8 NW 46 67 25 36 1010.1 - 0.0
01/10:00am 11.7 1.3 -0.1 44 5.0 NNW 44 54 24 29 1010.4 1010.0 0.0
01/09:30am 11.0 -0.1 -0.2 46 4.7 NNW 48 59 26 32 1010.5 - 0.0
01/09:00am 10.1 0.0 0.4 51 4.1 NW 43 54 23 29 1010.2 1010.3 0.0
01/08:30am 9.1 -1.2 0.0 53 3.8 NW 44 57 24 31 1010.5 - 0.0
01/08:00am 8.7 -1.5 -0.1 54 3.7 NNW 43 50 23 27 1009.9 1010.0 0.0
01/07:30am 7.0 -1.6 0.0 61 2.9 NW 35 46 19 25 1010.2 - 0.0
01/07:00am 6.7 -2.0 -0.3 61 2.8 NW 35 41 19 22 1010.0 1010.1 0.0
01/06:30am 7.0 -1.4 -0.7 58 3.1 NW 33 41 18 22 1010.1 - 0.0
01/06:00am 7.7 -1.0 -0.5 56 3.3 NW 35 39 19 21 1009.9 1010.0 0.0
01/05:30am 8.1 -1.8 -0.6 54 3.5 NW 41 44 22 24 1009.7 - 0.0
01/05:00am 7.9 -1.2 -0.8 54 3.5 NW 37 43 20 23 1009.9 1010.0 0.0
01/04:30am 7.6 -1.1 -0.8 55 3.4 NW 35 41 19 22 1010.1 - 0.0
01/04:00am 7.8 -1.0 -0.9 54 3.5 NW 35 39 19 21 1010.4 1010.5 0.0
01/03:30am 8.2 -0.9 -0.8 53 3.6 NW 37 43 20 23 1010.6 - 0.0
01/03:00am 8.0 -0.8 -1.0 53 3.6 NW 35 41 19 22 1010.9 1011.1 0.0
01/02:30am 8.4 -0.4 -1.1 51 3.8 NW 35 43 19 23 1011.0 - 0.0
01/02:00am 8.7 -0.5 -1.1 50 4.0 NW 37 44 20 24 1011.0 1011.2 0.0
01/01:30am 9.5 0.3 -1.2 47 4.4 NW 37 43 20 23 1011.1 - 0.0
01/01:00am 11.5 1.9 -1.3 41 5.3 NW 39 48 21 26 1011.1 1011.3 0.0
01/12:30am 11.3 1.3 -1.8 40 5.4 NW 41 46 22 25 1011.2 - 0.0
01/12:00am 11.5 1.8 -2.3 38 5.6 NW 39 48 21 26 1011.4 1011.5 0.0
 
Date/Time
EST
Temp
°C
App
Temp
°C
Dew
Point
Rel
Hum
%
Delta-T
°C
Wind Press
QNH
hPa
Press
MSL
hPa
Rain
since 9 am
mm
Dir
 
Spd
km/h
Gust
km/h
Spd
kts
Gust
kts
31/11:30pm 11.7 1.3 -2.1 38 5.6 NW 43 48 23 26 1011.6 - 0.0
31/11:00pm 12.7 2.6 -2.3 35 6.2 NNW 41 50 22 27 1011.9 1012.0 0.0
31/10:30pm 13.8 2.3 -3.0 31 6.9 NNW 48 57 26 31 1012.0 - 0.0
31/10:00pm 13.8 2.3 -3.0 31 6.9 NNW 48 56 26 30 1012.1 1012.3 0.0
31/09:30pm 13.7 2.2 -2.7 32 6.7 NNW 48 56 26 30 1012.4 - 0.0
31/09:00pm 12.9 2.3 -2.2 35 6.2 NNW 44 52 24 28 1012.6 1012.8 0.0
31/08:30pm 13.1 2.5 -2.0 35 6.3 NNW 44 48 24 26 1012.7 - 0.0
31/08:00pm 13.2 2.5 -2.3 34 6.4 NNW 44 50 24 27 1013.1 1013.2 0.0
31/07:30pm 13.7 2.7 -2.3 33 6.6 NNW 46 54 25 29 1013.2 - 0.0
31/07:00pm 14.2 1.7 -2.2 32 6.8 NNW 54 69 29 37 1013.1 1013.2 0.0
31/06:30pm 14.4 2.3 -1.6 33 6.8 NNW 52 59 28 32 1012.9 - 0.0
31/06:00pm 14.5 3.6 -1.2 34 6.7 NNW 46 56 25 30 1013.1 1013.2 0.0
31/05:30pm 15.0 4.1 -1.1 33 6.9 NNW 46 54 25 29 1012.9 - 0.0
31/05:00pm 16.0 4.4 -1.1 31 7.4 NNW 50 61 27 33 1013.0 1013.1 0.0
31/04:30pm 16.6 5.7 -1.5 29 7.8 NNW 46 57 25 31 1012.7 - 0.0
31/04:00pm 16.9 6.1 -0.8 30 7.8 NW 46 57 25 31 1012.7 1012.9 0.0
31/03:30pm 16.7 5.8 -0.9 30 7.7 NNW 46 57 25 31 1013.1 - 0.0
31/03:00pm 16.9 6.7 -0.3 31 7.7 NNW 43 54 23 29 1013.6 1013.8 0.0
31/02:30pm 16.6 5.1 -0.1 32 7.4 NNW 50 61 27 33 1013.8 - 0.0
31/02:21pm 16.7 5.7 0.8 34 7.2 NW 48 67 26 36 1014.3 - 0.0
31/02:00pm 16.7 4.9 0.4 33 7.4 NNW 52 61 28 33 1014.5 1014.7 0.0
31/01:30pm 16.6 5.3 1.1 35 7.1 NW 50 65 27 35 1014.9 - 0.0
31/01:00pm 15.6 3.4 0.2 35 6.8 NW 54 65 29 35 1015.4 1015.7 0.0
31/12:30pm 15.6 3.7 -0.2 34 7.0 NW 52 63 28 34 1016.2 - 0.0
31/12:00pm 14.8 3.6 -0.5 35 6.7 NNW 48 61 26 33 1016.7 1017.0 0.0
31/11:30am 14.3 2.8 0.2 38 6.2 NNW 50 61 27 33 1017.4 - 0.0
31/11:00am 14.2 3.9 0.1 38 6.2 NW 44 56 24 30 1018.4 1018.7 0.0
31/10:36am 13.9 3.1 -0.5 37 6.2 NW 46 65 25 35 1018.4 - 0.0
31/10:30am 14.0 3.8 -0.1 38 6.1 NW 43 56 23 30 1018.9 - 0.0
31/10:00am 13.6 5.2 1.6 44 5.4 NNW 35 43 19 23 1019.5 1019.8 0.0
31/09:30am 12.8 4.3 1.2 45 5.1 NNW 35 43 19 23 1019.9 - 0.0
31/09:00am 11.9 3.8 1.3 48 4.7 NNW 33 39 18 21 1019.9 1020.2 0.0
31/08:30am 11.1 4.0 1.1 50 4.4 NW 28 32 15 17 1020.0 - 0.0
31/08:00am 10.4 3.2 0.4 50 4.2 NNW 28 32 15 17 1020.0 1020.3 0.0
31/07:30am 9.7 2.9 0.6 53 3.9 NW 26 33 14 18 1019.8 - 0.0
31/07:00am 9.3 2.1 0.7 55 3.6 NW 28 35 15 19 1019.5 1019.8 0.0
31/06:30am 8.8 2.4 1.0 58 3.3 NW 24 28 13 15 1019.6 - 0.0
31/06:00am 8.3 1.9 1.0 60 3.1 NW 24 26 13 14 1019.6 1019.9 0.0
31/05:30am 8.8 2.8 1.0 58 3.3 NW 22 24 12 13 1019.3 - 0.0
31/05:00am 8.8 2.4 0.8 57 3.4 NW 24 28 13 15 1019.4 1019.7 0.0
31/04:30am 9.8 3.4 0.9 54 3.8 NW 24 26 13 14 1019.3 - 0.0
31/04:00am 10.2 4.2 0.8 52 4.0 NW 22 24 12 13 1019.5 1019.8 0.0
31/03:30am 10.6 4.2 0.9 51 4.2 NW 24 28 13 15 1019.6 - 0.0
31/03:00am 10.0 4.4 1.4 55 3.7 NW 20 24 11 13 1019.7 1020.0 0.0
31/02:30am 10.1 4.5 1.2 54 3.9 NW 20 24 11 13 1019.9 - 0.0
31/02:00am 10.3 4.7 1.2 53 3.9 NW 20 22 11 12 1020.0 1020.3 0.0
31/01:30am 10.8 4.8 1.1 51 4.2 NNW 22 28 12 15 1020.0 - 0.0
31/01:00am 11.3 5.9 1.3 50 4.4 NNW 19 24 10 13 1020.3 1020.6 0.0
31/12:30am 11.3 5.9 1.0 49 4.5 NNW 19 22 10 12 1020.4 - 0.0
31/12:00am 11.4 5.4 1.1 49 4.5 NNW 22 28 12 15 1020.6 1020.9 0.0
 
Date/Time
EST
Temp
°C
App
Temp
°C
Dew
Point
Rel
Hum
%
Delta-T
°C
Wind Press
QNH
hPa
Press
MSL
hPa
Rain
since 9 am
mm
Dir
 
Spd
km/h
Gust
km/h
Spd
kts
Gust
kts
30/11:30pm 12.0 5.7 1.3 48 4.7 NNW 24 30 13 16 1020.7 - 0.0
30/11:00pm 12.2 5.9 1.5 48 4.7 NNW 24 30 13 16 1020.9 1021.2 0.0
30/10:30pm 10.9 4.3 2.0 54 4.0 NW 26 30 14 16 1020.9 - 0.0
30/10:00pm 11.3 3.9 1.8 52 4.2 NW 30 33 16 18 1020.9 1021.2 0.0
30/09:30pm 11.3 3.9 2.1 53 4.1 NW 30 35 16 19 1020.8 - 0.0
30/09:00pm 11.1 3.8 2.2 54 4.0 NNW 30 35 16 19 1020.9 1021.2 0.0
30/08:30pm 12.5 4.6 2.1 49 4.7 NNW 33 37 18 20 1020.7 - 0.0
30/08:00pm 11.6 4.3 2.6 54 4.1 NW 30 32 16 17 1020.7 1021.0 0.0
30/07:30pm 12.4 6.3 2.6 51 4.5 NW 24 30 13 16 1020.9 - 0.0
30/07:00pm 12.6 6.5 2.7 51 4.5 NW 24 30 13 16 1020.6 1020.9 0.0
30/06:30pm 13.1 6.2 2.6 49 4.8 NNW 28 33 15 18 1020.3 - 0.0
30/06:00pm 13.6 5.4 2.8 48 5.0 NNW 35 43 19 23 1019.6 1019.9 0.0
30/05:30pm 13.3 6.1 3.1 50 4.7 NNW 30 37 16 20 1019.9 - 0.0
30/05:00pm 14.4 7.6 2.9 46 5.3 NNW 28 35 15 19 1019.9 1020.2 0.0
30/04:30pm 14.8 6.6 2.7 44 5.6 NNW 35 41 19 22 1019.7 - 0.0
30/04:00pm 15.2 7.9 2.7 43 5.8 NNW 30 37 16 20 1020.2 1020.5 0.0
30/03:30pm 15.1 8.5 2.3 42 5.9 NNW 26 32 14 17 1020.3 - 0.0
30/03:00pm 15.2 7.5 2.1 41 6.0 NW 32 39 17 21 1020.6 1020.9 0.0
30/02:30pm 15.1 8.0 1.6 40 6.2 NW 28 37 15 20 1020.7 - 0.0
30/02:00pm 15.1 7.5 2.6 43 5.8 NW 32 43 17 23 1020.4 1020.7 0.0
30/01:30pm 14.7 7.8 2.3 43 5.7 NNW 28 35 15 19 1020.5 - 0.0
30/01:00pm 14.1 7.1 2.0 44 5.5 NNW 28 39 15 21 1020.8 1021.1 0.0
30/12:30pm 13.4 6.7 1.7 45 5.3 NNW 26 35 14 19 1021.2 - 0.0
30/12:00pm 13.5 6.5 2.1 46 5.2 NW 28 37 15 20 1021.7 1022.0 0.0
30/11:30am 13.1 5.8 2.6 49 4.8 NNW 30 44 16 24 1022.0 - 0.0
30/11:00am 12.5 4.7 1.8 48 4.8 NNW 32 41 17 22 1022.2 1022.5 0.0
30/10:30am 12.0 3.2 1.3 48 4.7 NW 37 43 20 23 1022.5 - 0.0
30/10:00am 12.0 4.5 1.1 47 4.8 NNW 30 35 16 19 1023.3 1023.6 0.0
30/09:30am 11.2 4.7 0.6 48 4.6 NNW 24 30 13 16 1023.8 - 0.0
30/09:00am 10.6 3.8 0.9 51 4.2 NNW 26 32 14 17 1023.7 1024.1 0.0
30/08:30am 9.9 3.6 1.5 56 3.7 NW 24 28 13 15 1023.5 - 0.0
30/08:00am 9.1 2.8 1.3 58 3.3 NW 24 28 13 15 1023.3 1023.6 0.0
30/07:30am 7.3 0.9 0.7 63 2.7 NW 24 28 13 15 1022.9 - 0.0
30/07:00am 8.0 1.6 0.7 60 3.0 NW 24 28 13 15 1022.5 1022.9 0.0
30/06:30am 7.9 1.4 0.6 60 3.1 NW 24 26 13 14 1022.4 - 0.0
30/06:00am 7.5 1.1 0.7 62 2.8 NW 24 28 13 15 1022.0 1022.3 0.0
30/05:30am 7.9 1.8 0.6 60 3.1 NW 22 24 12 13 1021.9 - 0.0
30/05:00am 8.0 1.9 0.7 60 3.0 NW 22 24 12 13 1021.5 1021.9 0.0
30/04:30am 7.9 1.9 1.1 62 2.9 NW 22 24 12 13 1021.4 - 0.0
30/04:00am 7.9 2.3 1.1 62 2.9 NW 20 22 11 12 1021.5 1021.9 0.0
30/03:30am 8.2 2.6 1.1 61 3.0 NW 20 24 11 13 1021.3 - 0.0
30/03:00am 7.6 2.2 1.0 63 2.8 NW 19 22 10 12 1021.4 1021.8 0.0
30/02:30am 9.0 2.3 1.2 58 3.3 NW 26 28 14 15 1021.2 - 0.0
30/02:00am 8.9 2.9 1.3 59 3.2 NW 22 26 12 14 1021.4 1021.8 0.0
30/01:30am 9.4 3.4 1.3 57 3.5 NW 22 26 12 14 1021.4 - 0.0
30/01:00am 10.0 3.6 1.1 54 3.8 NW 24 30 13 16 1021.5 1021.9 0.0
30/12:30am 10.3 3.6 1.2 53 3.9 NNW 26 32 14 17 1021.5 - 0.0
30/12:00am 10.7 4.0 1.3 52 4.1 NNW 26 32 14 17 1021.7 1022.0 0.0

Other Formats:

Comma delimited format used in spreadsheet applications
http://www.bom.gov.au/fwo/IDN60801/IDN60801.95747.axf

JavaScript Object Notation format (JSON) in row-major order
http://www.bom.gov.au/fwo/IDN60801/IDN60801.95747.json